createdAt,value
2022-11-26T00:01:21.442Z,100.00
2022-11-26T00:03:49.485Z,100.00
2022-11-26T00:06:31.653Z,100.00
2022-11-26T00:08:59.187Z,100.00
2022-11-26T00:11:26.042Z,100.00
2022-11-26T00:13:52.538Z,100.00
2022-11-26T00:16:19.086Z,100.00
2022-11-26T00:18:45.541Z,100.00
2022-11-26T00:21:24.310Z,100.00
2022-11-26T00:23:51.820Z,100.00
2022-11-26T00:26:21.692Z,100.00
2022-11-26T00:29:00.252Z,100.00
2022-11-26T00:31:27.876Z,100.00
2022-11-26T00:33:54.956Z,100.00
2022-11-26T00:36:30.366Z,100.00
2022-11-26T00:39:02.339Z,100.00
2022-11-26T00:41:34.681Z,100.00
2022-11-26T00:44:01.886Z,100.00
2022-11-26T00:46:28.291Z,100.00
2022-11-26T00:48:54.807Z,100.00
2022-11-26T00:51:25.108Z,100.00
2022-11-26T00:53:54.857Z,100.00
2022-11-26T00:56:22.540Z,100.00
2022-11-26T00:58:50.496Z,100.00
2022-11-26T01:01:23.097Z,100.00
2022-11-26T01:03:49.870Z,100.00
2022-11-26T01:06:35.666Z,100.00
2022-11-26T01:09:04.721Z,100.00
2022-11-26T01:11:31.193Z,100.00
2022-11-26T01:13:57.663Z,100.00
2022-11-26T01:16:26.996Z,100.00
2022-11-26T01:18:56.535Z,100.00
2022-11-26T01:21:25.785Z,100.00
2022-11-26T01:23:52.754Z,100.00
2022-11-26T01:26:22.984Z,100.00
2022-11-26T01:28:49.891Z,100.00
2022-11-26T01:31:19.541Z,100.00
2022-11-26T01:33:46.016Z,100.00
2022-11-26T01:36:25.312Z,100.00
2022-11-26T01:38:56.663Z,100.00
2022-11-26T01:41:45.582Z,100.00
2022-11-26T01:44:18.667Z,100.00
2022-11-26T01:46:45.897Z,100.00
2022-11-26T01:49:16.399Z,100.00
2022-11-26T01:51:44.085Z,100.00
2022-11-26T01:54:11.274Z,100.00
2022-11-26T01:57:02.355Z,100.00
2022-11-26T01:59:34.646Z,100.00
2022-11-26T02:02:01.677Z,100.00
2022-11-26T02:04:38.227Z,100.00
2022-11-26T02:07:05.117Z,100.00
2022-11-26T02:09:32.176Z,100.00
2022-11-26T02:11:58.994Z,100.00
2022-11-26T02:14:28.577Z,100.00
2022-11-26T02:17:10.298Z,100.00
2022-11-26T02:19:58.073Z,100.00
2022-11-26T02:22:36.685Z,100.00
2022-11-26T02:25:10.009Z,100.00
2022-11-26T02:28:04.410Z,100.00
2022-11-26T02:30:36.558Z,100.00
2022-11-26T02:33:11.733Z,100.00
2022-11-26T02:35:49.401Z,100.00
2022-11-26T02:38:21.630Z,100.00
2022-11-26T02:40:48.148Z,100.00
2022-11-26T02:43:16.468Z,100.00
2022-11-26T02:45:47.745Z,100.00
2022-11-26T02:48:20.118Z,100.00
2022-11-26T02:50:51.562Z,100.00
2022-11-26T02:53:21.239Z,100.00
2022-11-26T02:55:51.001Z,100.00
2022-11-26T02:58:18.777Z,100.00
2022-11-26T03:00:48.265Z,100.00
2022-11-26T03:03:27.249Z,100.00
2022-11-26T03:05:57.725Z,100.00
2022-11-26T03:08:26.269Z,100.00
2022-11-26T03:10:52.765Z,100.00
2022-11-26T03:13:19.259Z,100.00
2022-11-26T03:15:45.760Z,100.00
2022-11-26T03:18:12.267Z,100.00
2022-11-26T03:20:38.685Z,100.00
2022-11-26T03:23:05.207Z,100.00
2022-11-26T03:25:31.680Z,100.00
2022-11-26T03:27:58.072Z,100.00
2022-11-26T03:30:24.632Z,100.00
2022-11-26T03:32:51.201Z,100.00
2022-11-26T03:35:17.965Z,100.00
2022-11-26T03:37:44.797Z,100.00
2022-11-26T03:40:11.978Z,100.00
2022-11-26T03:42:38.458Z,100.00
2022-11-26T03:45:05.424Z,100.00
2022-11-26T03:47:31.843Z,100.00
2022-11-26T03:49:58.243Z,100.00
2022-11-26T03:52:24.633Z,100.00
2022-11-26T03:54:51.083Z,100.00
2022-11-26T03:57:18.354Z,100.00
2022-11-26T03:59:44.788Z,100.00
2022-11-26T04:02:11.182Z,100.00
2022-11-26T04:04:38.076Z,100.00
2022-11-26T04:07:04.906Z,100.00
2022-11-26T04:09:31.513Z,100.00
2022-11-26T04:11:58.019Z,100.00
2022-11-26T04:14:24.522Z,100.00
2022-11-26T04:16:50.981Z,100.00
2022-11-26T04:19:17.546Z,100.00
2022-11-26T04:21:44.011Z,100.00
2022-11-26T04:24:10.645Z,100.00
2022-11-26T04:26:37.304Z,100.00
2022-11-26T04:29:03.894Z,100.00
2022-11-26T04:31:30.557Z,100.00
2022-11-26T04:33:56.971Z,100.00
2022-11-26T04:36:23.418Z,100.00
2022-11-26T04:38:49.886Z,100.00
2022-11-26T04:41:16.324Z,100.00
2022-11-26T04:43:42.726Z,100.00
2022-11-26T04:46:09.281Z,100.00
2022-11-26T04:48:35.745Z,100.00
2022-11-26T04:51:02.262Z,100.00
2022-11-26T04:53:28.691Z,100.00
2022-11-26T04:55:55.098Z,100.00
2022-11-26T04:58:21.701Z,100.00
2022-11-26T05:00:50.834Z,100.00
2022-11-26T05:03:18.264Z,100.00
2022-11-26T05:05:44.706Z,100.00
2022-11-26T05:08:11.173Z,100.00
2022-11-26T05:10:37.673Z,100.00
2022-11-26T05:13:05.176Z,100.00
2022-11-26T05:15:31.690Z,100.00
2022-11-26T05:17:58.176Z,100.00
2022-11-26T05:20:25.071Z,100.00
2022-11-26T05:22:52.034Z,100.00
2022-11-26T05:25:20.826Z,100.00
2022-11-26T05:27:49.191Z,100.00
2022-11-26T05:30:18.069Z,100.00
2022-11-26T05:32:46.678Z,100.00
2022-11-26T05:35:15.835Z,100.00
2022-11-26T05:37:44.390Z,100.00
2022-11-26T05:40:11.612Z,100.00
2022-11-26T05:42:38.406Z,100.00
2022-11-26T05:45:05.812Z,100.00
2022-11-26T05:47:32.440Z,100.00
2022-11-26T05:49:58.871Z,100.00
2022-11-26T05:52:25.391Z,100.00
2022-11-26T05:54:51.858Z,100.00
2022-11-26T05:57:18.717Z,100.00
2022-11-26T05:59:45.165Z,100.00
2022-11-26T06:02:11.653Z,100.00
2022-11-26T06:04:38.458Z,100.00
2022-11-26T06:07:05.108Z,100.00
2022-11-26T06:09:31.609Z,100.00
2022-11-26T06:11:58.026Z,100.00
2022-11-26T06:14:24.489Z,100.00
2022-11-26T06:16:51.041Z,100.00
2022-11-26T06:19:17.506Z,100.00
2022-11-26T06:21:43.915Z,100.00
2022-11-26T06:24:10.742Z,100.00
2022-11-26T06:26:37.224Z,100.00
2022-11-26T06:29:03.956Z,100.00
2022-11-26T06:31:30.436Z,100.00
2022-11-26T06:33:57.033Z,100.00
2022-11-26T06:36:24.082Z,100.00
2022-11-26T06:38:50.701Z,100.00
2022-11-26T06:41:17.250Z,100.00
2022-11-26T06:43:43.745Z,100.00
2022-11-26T06:46:11.282Z,100.00
2022-11-26T06:48:38.638Z,100.00
2022-11-26T06:51:09.677Z,100.00
2022-11-26T06:53:36.375Z,100.00
2022-11-26T06:56:05.593Z,100.00
2022-11-26T06:58:32.930Z,100.00
2022-11-26T07:00:59.535Z,100.00
2022-11-26T07:03:30.618Z,100.00
2022-11-26T07:05:59.773Z,100.00
2022-11-26T07:08:26.449Z,100.00
2022-11-26T07:10:52.880Z,100.00
2022-11-26T07:13:19.335Z,100.00
2022-11-26T07:15:46.104Z,100.00
2022-11-26T07:18:12.794Z,100.00
2022-11-26T07:20:39.707Z,100.00
2022-11-26T07:23:06.694Z,100.00
2022-11-26T07:25:33.774Z,100.00
2022-11-26T07:28:00.265Z,100.00
2022-11-26T07:30:26.731Z,100.00
2022-11-26T07:32:53.236Z,100.00
2022-11-26T07:35:19.790Z,100.00
2022-11-26T07:37:46.190Z,100.00
2022-11-26T07:40:13.224Z,100.00
2022-11-26T07:42:39.657Z,100.00
2022-11-26T07:45:06.535Z,100.00
2022-11-26T07:47:33.244Z,100.00
2022-11-26T07:50:00.597Z,100.00
2022-11-26T07:52:27.005Z,100.00
2022-11-26T07:54:53.488Z,100.00
2022-11-26T07:57:22.146Z,100.00
2022-11-26T07:59:49.089Z,100.00
2022-11-26T08:02:15.862Z,100.00
2022-11-26T08:04:42.334Z,100.00
2022-11-26T08:07:09.144Z,100.00
2022-11-26T08:09:35.698Z,100.00
2022-11-26T08:12:02.275Z,100.00
2022-11-26T08:14:28.720Z,100.00
2022-11-26T08:16:55.215Z,100.00
2022-11-26T08:19:21.665Z,100.00
2022-11-26T08:21:48.065Z,100.00
2022-11-26T08:24:17.193Z,100.00
2022-11-26T08:26:44.942Z,100.00
2022-11-26T08:29:13.037Z,100.00
2022-11-26T08:31:45.544Z,100.00
2022-11-26T08:34:15.029Z,100.00
2022-11-26T08:36:42.563Z,100.00
2022-11-26T08:39:13.203Z,100.00
2022-11-26T08:41:40.196Z,100.00
2022-11-26T08:44:08.285Z,100.00
2022-11-26T08:46:40.790Z,100.00
2022-11-26T08:49:09.976Z,100.00
2022-11-26T08:51:36.451Z,100.00
2022-11-26T08:54:03.082Z,100.00
2022-11-26T08:56:29.680Z,100.00
2022-11-26T08:58:56.241Z,100.00
2022-11-26T09:01:25.192Z,100.00
2022-11-26T09:03:54.122Z,100.00
2022-11-26T09:06:22.307Z,100.00
2022-11-26T09:09:08.224Z,100.00
2022-11-26T09:11:39.739Z,100.00
2022-11-26T09:14:06.187Z,100.00
2022-11-26T09:16:33.205Z,100.00
2022-11-26T09:19:01.212Z,100.00
2022-11-26T09:21:27.736Z,100.00
2022-11-26T09:23:54.819Z,100.00
2022-11-26T09:26:22.244Z,100.00
2022-11-26T09:28:49.281Z,100.00
2022-11-26T09:31:16.231Z,100.00
2022-11-26T09:33:43.320Z,100.00
2022-11-26T09:36:14.867Z,100.00
2022-11-26T09:38:42.102Z,100.00
2022-11-26T09:41:40.916Z,100.00
2022-11-26T09:44:38.269Z,100.00
2022-11-26T09:47:17.576Z,100.00
2022-11-26T09:49:59.160Z,100.00
2022-11-26T09:52:30.188Z,100.00
2022-11-26T09:55:16.855Z,100.00
2022-11-26T09:57:49.092Z,100.00
2022-11-26T10:00:23.698Z,100.00
2022-11-26T10:02:52.801Z,100.00
2022-11-26T10:05:21.573Z,100.00
2022-11-26T10:08:05.662Z,100.00
2022-11-26T10:10:42.554Z,100.00
2022-11-26T10:13:22.252Z,100.00
2022-11-26T10:16:13.206Z,100.00
2022-11-26T10:19:07.573Z,100.00
2022-11-26T10:24:41.031Z,100.00
2022-11-26T10:27:17.093Z,100.00
2022-11-26T10:29:49.298Z,100.00
2022-11-26T10:32:21.524Z,100.00
2022-11-26T10:34:56.103Z,100.00
2022-11-26T10:37:25.309Z,100.00
2022-11-26T10:40:21.964Z,100.00
2022-11-26T10:43:19.347Z,100.00
2022-11-26T10:45:51.041Z,100.00
2022-11-26T10:48:27.891Z,100.00
2022-11-26T10:50:59.608Z,100.00
2022-11-26T10:53:28.194Z,100.00
2022-11-26T10:56:00.533Z,100.00
2022-11-26T10:58:42.542Z,100.00
2022-11-26T11:01:10.344Z,100.00
2022-11-26T11:04:07.483Z,100.00
2022-11-26T11:06:43.980Z,100.00
2022-11-26T11:09:22.210Z,100.00
2022-11-26T11:12:14.475Z,100.00
2022-11-26T11:14:43.293Z,98.64
2022-11-26T11:17:24.782Z,95.96
2022-11-26T11:19:51.474Z,94.47
2022-11-26T11:22:20.624Z,94.07
2022-11-26T11:24:48.217Z,92.55
2022-11-26T11:27:27.072Z,90.32
2022-11-26T11:29:59.501Z,89.51
2022-11-26T11:32:40.419Z,87.33
2022-11-26T11:35:32.955Z,82.45
2022-11-26T11:37:59.469Z,81.04
2022-11-26T11:40:29.192Z,78.93
2022-11-26T11:43:01.927Z,80.15
2022-11-26T11:45:28.415Z,78.66
2022-11-26T11:47:58.589Z,76.76
2022-11-26T11:50:38.036Z,73.83
2022-11-26T11:53:13.635Z,71.48
2022-11-26T11:56:22.222Z,71.13
2022-11-26T11:59:06.941Z,67.88
2022-11-26T12:01:45.644Z,67.46
2022-11-26T12:04:32.630Z,67.87
2022-11-26T12:07:23.227Z,67.20
2022-11-26T12:10:00.363Z,64.97
2022-11-26T12:12:35.381Z,64.37
2022-11-26T12:15:38.608Z,63.53
2022-11-26T12:18:31.608Z,63.42
2022-11-26T12:21:31.130Z,62.92
2022-11-26T12:24:19.840Z,62.12
2022-11-26T12:26:51.651Z,63.06
2022-11-26T12:29:47.281Z,63.34
2022-11-26T12:32:18.501Z,62.62
2022-11-26T12:34:51.448Z,62.58
2022-11-26T12:37:23.411Z,64.83
2022-11-26T12:40:23.007Z,66.71
2022-11-26T12:42:57.808Z,64.30
2022-11-26T12:45:33.348Z,61.72
2022-11-26T12:48:13.669Z,62.61
2022-11-26T12:50:48.148Z,62.79
2022-11-26T12:53:24.693Z,63.00
2022-11-26T12:56:03.822Z,63.43
2022-11-26T12:58:54.785Z,61.89
2022-11-26T13:01:21.541Z,62.68
2022-11-26T13:03:48.675Z,63.80
2022-11-26T13:06:30.083Z,63.60
2022-11-26T13:09:04.083Z,66.28
2022-11-26T13:11:55.196Z,67.61
2022-11-26T13:14:54.106Z,66.91
2022-11-26T13:17:29.496Z,67.00
2022-11-26T13:20:07.294Z,66.98
2022-11-26T13:22:55.841Z,65.82
2022-11-26T13:25:37.518Z,66.34
2022-11-26T13:28:22.846Z,66.34
2022-11-26T13:30:52.296Z,67.76
2022-11-26T13:34:08.458Z,67.21
2022-11-26T13:37:02.829Z,69.29
2022-11-26T13:39:54.789Z,66.50
2022-11-26T13:42:39.242Z,65.54
2022-11-26T13:45:12.938Z,64.87
2022-11-26T13:47:56.931Z,65.29
2022-11-26T13:50:26.148Z,66.61
2022-11-26T13:53:15.485Z,66.23
2022-11-26T13:55:50.299Z,66.63
2022-11-26T13:58:27.701Z,67.75
2022-11-26T14:00:54.301Z,68.56
2022-11-26T14:03:47.267Z,68.35
2022-11-26T14:06:15.146Z,68.95
2022-11-26T14:08:45.004Z,69.88
2022-11-26T14:11:13.794Z,70.63
2022-11-26T14:13:42.569Z,72.47
2022-11-26T14:16:10.339Z,71.33
2022-11-26T14:19:06.374Z,74.02
2022-11-26T14:21:59.510Z,75.09
2022-11-26T14:24:48.992Z,73.29
2022-11-26T14:27:16.010Z,72.25
2022-11-26T14:29:43.615Z,72.15
2022-11-26T14:32:23.190Z,74.66
2022-11-26T14:34:53.379Z,72.98
2022-11-26T14:37:25.633Z,72.57
2022-11-26T14:40:01.862Z,73.49
2022-11-26T14:42:29.648Z,73.25
2022-11-26T14:45:15.572Z,73.43
2022-11-26T14:47:45.874Z,73.83
2022-11-26T14:50:33.549Z,74.59
2022-11-26T14:53:05.388Z,74.39
2022-11-26T14:55:33.930Z,76.14
2022-11-26T14:58:16.126Z,78.76
2022-11-26T15:00:42.572Z,79.27
2022-11-26T15:03:23.960Z,80.62
2022-11-26T15:05:50.622Z,81.42
2022-11-26T15:08:20.187Z,82.45
2022-11-26T15:10:50.839Z,82.11
2022-11-26T15:13:28.120Z,82.40
2022-11-26T15:15:57.376Z,84.21
2022-11-26T15:18:32.986Z,85.19
2022-11-26T15:21:00.927Z,85.05
2022-11-26T15:23:35.314Z,85.40
2022-11-26T15:26:02.656Z,86.14
2022-11-26T15:28:29.154Z,87.15
2022-11-26T15:31:01.315Z,87.44
2022-11-26T15:33:30.676Z,87.53
2022-11-26T15:35:57.518Z,87.38
2022-11-26T15:38:30.094Z,87.50
2022-11-26T15:41:06.818Z,87.85
2022-11-26T15:43:52.284Z,88.29
2022-11-26T15:46:22.302Z,89.14
2022-11-26T15:48:53.621Z,89.15
2022-11-26T15:51:36.172Z,90.08
2022-11-26T15:54:05.921Z,95.88
2022-11-26T15:56:36.823Z,91.42
2022-11-26T15:59:15.046Z,90.82
2022-11-26T16:01:46.108Z,91.68
2022-11-26T16:04:38.009Z,91.48
2022-11-26T16:07:18.609Z,92.04
2022-11-26T16:09:46.643Z,92.04
2022-11-26T16:12:26.049Z,93.47
2022-11-26T16:14:52.491Z,92.37
2022-11-26T16:17:20.821Z,93.30
2022-11-26T16:19:51.340Z,92.26
2022-11-26T16:22:22.895Z,92.05
2022-11-26T16:25:27.372Z,94.01
2022-11-26T16:28:12.270Z,94.63
2022-11-26T16:30:40.300Z,94.37
2022-11-26T16:33:06.905Z,94.50
2022-11-26T16:35:48.949Z,95.30
2022-11-26T16:38:21.615Z,94.67
2022-11-26T16:40:48.738Z,94.07
2022-11-26T16:43:15.294Z,93.67
2022-11-26T16:45:42.227Z,93.55
2022-11-26T16:48:22.498Z,94.21
2022-11-26T16:50:48.960Z,94.54
2022-11-26T16:53:15.468Z,95.85
2022-11-26T16:55:41.895Z,95.81
2022-11-26T16:58:16.456Z,95.11
2022-11-26T17:00:42.927Z,97.43
2022-11-26T17:03:13.015Z,99.44
2022-11-26T17:05:41.600Z,98.92
2022-11-26T17:08:11.361Z,98.66
2022-11-26T17:10:37.945Z,97.86
2022-11-26T17:13:04.468Z,97.82
2022-11-26T17:15:31.030Z,97.69
2022-11-26T17:18:07.352Z,96.92
2022-11-26T17:20:33.823Z,98.37
2022-11-26T17:23:00.291Z,98.47
2022-11-26T17:25:26.704Z,98.44
2022-11-26T17:27:53.161Z,97.41
2022-11-26T17:30:22.825Z,97.34
2022-11-26T17:32:50.243Z,98.39
2022-11-26T17:35:17.190Z,100.00
2022-11-26T17:37:43.955Z,98.23
2022-11-26T17:40:19.594Z,100.00
2022-11-26T17:42:46.713Z,100.00
2022-11-26T17:45:14.186Z,99.90
2022-11-26T17:47:41.029Z,100.00
2022-11-26T17:50:17.478Z,100.00
2022-11-26T17:52:43.921Z,99.91
2022-11-26T17:55:12.031Z,100.00
2022-11-26T17:57:38.466Z,99.69
2022-11-26T18:00:07.029Z,100.00
2022-11-26T18:02:33.763Z,99.72
2022-11-26T18:05:00.284Z,100.00
2022-11-26T18:07:26.768Z,100.00
2022-11-26T18:09:53.865Z,100.00
2022-11-26T18:12:26.816Z,100.00
2022-11-26T18:14:54.791Z,100.00
2022-11-26T18:17:21.668Z,100.00
2022-11-26T18:19:48.378Z,100.00
2022-11-26T18:22:17.835Z,100.00
2022-11-26T18:24:56.124Z,100.00
2022-11-26T18:27:26.586Z,100.00
2022-11-26T18:29:53.059Z,100.00
2022-11-26T18:32:20.262Z,100.00
2022-11-26T18:34:49.466Z,100.00
2022-11-26T18:37:17.180Z,100.00
2022-11-26T18:39:43.907Z,100.00
2022-11-26T18:44:58.093Z,100.00
2022-11-26T18:47:24.728Z,100.00
2022-11-26T18:49:51.283Z,100.00
2022-11-26T18:52:17.776Z,100.00
2022-11-26T18:54:44.244Z,100.00
2022-11-26T18:57:10.682Z,100.00
2022-11-26T18:59:37.485Z,100.00
2022-11-26T19:02:04.548Z,100.00
2022-11-26T19:04:31.117Z,100.00
2022-11-26T19:06:57.591Z,100.00
2022-11-26T19:09:24.086Z,100.00
2022-11-26T19:11:53.889Z,100.00
2022-11-26T19:14:20.613Z,100.00
2022-11-26T19:16:49.814Z,100.00
2022-11-26T19:19:16.848Z,100.00
2022-11-26T19:21:43.514Z,100.00
2022-11-26T19:24:11.683Z,100.00
2022-11-26T19:26:38.972Z,100.00
2022-11-26T19:29:06.621Z,100.00
2022-11-26T19:31:35.871Z,100.00
2022-11-26T19:34:08.909Z,100.00
2022-11-26T19:36:36.288Z,100.00
2022-11-26T19:39:04.382Z,100.00
2022-11-26T19:41:30.869Z,100.00
2022-11-26T19:44:00.278Z,100.00
2022-11-26T19:46:27.732Z,100.00
2022-11-26T19:48:55.541Z,100.00
2022-11-26T19:51:24.185Z,100.00
2022-11-26T19:53:53.074Z,100.00
2022-11-26T19:56:22.775Z,100.00
2022-11-26T19:58:50.521Z,100.00
2022-11-26T20:01:18.147Z,100.00
2022-11-26T20:03:44.828Z,100.00
2022-11-26T20:06:26.172Z,100.00
2022-11-26T20:08:53.523Z,100.00
2022-11-26T20:11:20.277Z,100.00
2022-11-26T20:13:48.346Z,100.00
2022-11-26T20:16:26.132Z,100.00
2022-11-26T20:18:53.125Z,100.00
2022-11-26T20:21:22.500Z,100.00
2022-11-26T20:23:50.246Z,100.00
2022-11-26T20:26:25.120Z,100.00
2022-11-26T20:28:52.850Z,100.00
2022-11-26T20:31:23.696Z,100.00
2022-11-26T20:33:52.779Z,100.00
2022-11-26T20:36:21.064Z,100.00
2022-11-26T20:38:52.079Z,100.00
2022-11-26T20:41:18.672Z,100.00
2022-11-26T20:43:45.241Z,100.00
2022-11-26T20:46:13.630Z,100.00
2022-11-26T20:48:41.743Z,100.00
2022-11-26T20:51:09.947Z,100.00
2022-11-26T20:53:38.145Z,100.00
2022-11-26T20:56:05.823Z,100.00
2022-11-26T20:58:33.094Z,100.00
2022-11-26T21:00:59.731Z,100.00
2022-11-26T21:03:27.948Z,100.00
2022-11-26T21:05:55.122Z,100.00
2022-11-26T21:08:23.037Z,100.00
2022-11-26T21:10:50.490Z,100.00
2022-11-26T21:13:19.078Z,100.00
2022-11-26T21:15:49.609Z,100.00
2022-11-26T21:18:16.851Z,100.00
2022-11-26T21:20:44.375Z,100.00
2022-11-26T21:23:12.534Z,100.00
2022-11-26T21:25:40.759Z,100.00
2022-11-26T21:28:08.113Z,100.00
2022-11-26T21:30:35.827Z,100.00
2022-11-26T21:33:08.710Z,100.00
2022-11-26T21:35:36.257Z,100.00
2022-11-26T21:38:03.270Z,100.00
2022-11-26T21:40:30.177Z,100.00
2022-11-26T21:42:56.633Z,100.00
2022-11-26T21:45:23.607Z,100.00
2022-11-26T21:47:51.344Z,100.00
2022-11-26T21:50:19.266Z,100.00
2022-11-26T21:52:45.715Z,100.00
2022-11-26T21:55:12.453Z,100.00
2022-11-26T21:57:38.936Z,100.00
2022-11-26T22:00:06.090Z,100.00
2022-11-26T22:02:32.603Z,100.00
2022-11-26T22:04:59.095Z,100.00
2022-11-26T22:07:25.705Z,100.00
2022-11-26T22:09:52.442Z,100.00
2022-11-26T22:12:18.896Z,100.00
2022-11-26T22:14:45.346Z,100.00
2022-11-26T22:17:11.850Z,100.00
2022-11-26T22:19:38.587Z,100.00
2022-11-26T22:22:05.107Z,100.00
2022-11-26T22:24:31.539Z,100.00
2022-11-26T22:26:59.306Z,100.00
2022-11-26T22:29:25.745Z,100.00
2022-11-26T22:31:52.228Z,100.00
2022-11-26T22:34:22.184Z,100.00
2022-11-26T22:36:48.969Z,100.00
2022-11-26T22:39:17.234Z,100.00
2022-11-26T22:41:45.123Z,100.00
2022-11-26T22:44:12.633Z,100.00
2022-11-26T22:46:39.323Z,100.00
2022-11-26T22:49:06.558Z,100.00
2022-11-26T22:51:35.117Z,100.00
2022-11-26T22:54:04.551Z,100.00
2022-11-26T22:56:31.270Z,100.00
2022-11-26T22:58:58.213Z,100.00
2022-11-26T23:01:30.486Z,100.00
2022-11-26T23:03:58.951Z,100.00
2022-11-26T23:06:27.512Z,100.00
2022-11-26T23:08:55.370Z,100.00
2022-11-26T23:11:23.871Z,100.00
2022-11-26T23:13:51.236Z,100.00
2022-11-26T23:16:19.406Z,100.00
2022-11-26T23:18:46.038Z,100.00
2022-11-26T23:21:16.036Z,100.00
2022-11-26T23:23:42.797Z,100.00
2022-11-26T23:26:13.230Z,100.00
2022-11-26T23:28:39.719Z,100.00
2022-11-26T23:31:12.524Z,100.00
2022-11-26T23:33:38.926Z,100.00
2022-11-26T23:36:05.761Z,100.00
2022-11-26T23:38:32.211Z,100.00
2022-11-26T23:41:01.454Z,100.00
2022-11-26T23:43:29.048Z,100.00
2022-11-26T23:46:02.422Z,100.00
2022-11-26T23:48:29.082Z,100.00
2022-11-26T23:50:55.776Z,100.00
2022-11-26T23:53:22.260Z,100.00
2022-11-26T23:55:49.002Z,100.00
2022-11-26T23:58:16.726Z,100.00
